createdAt,value
2023-01-10T00:02:07.228Z,99334.13
2023-01-10T00:04:35.782Z,99322.13
2023-01-10T00:07:04.278Z,99336.38
2023-01-10T00:09:32.801Z,99334.03
2023-01-10T00:12:23.691Z,99334.31
2023-01-10T00:14:52.891Z,99337.91
2023-01-10T00:17:22.991Z,99333.50
2023-01-10T00:19:51.472Z,99336.25
2023-01-10T00:22:25.306Z,99339.03
2023-01-10T00:24:53.914Z,99343.47
2023-01-10T00:27:23.917Z,99339.03
2023-01-10T00:29:54.042Z,99342.66
2023-01-10T00:32:24.229Z,99342.94
2023-01-10T00:34:52.660Z,99350.94
2023-01-10T00:37:21.212Z,99352.88
2023-01-10T00:39:49.723Z,99350.25
2023-01-10T00:42:35.610Z,99348.59
2023-01-10T00:45:04.093Z,99346.94
2023-01-10T00:47:33.959Z,99355.97
2023-01-10T00:50:02.509Z,99361.75
2023-01-10T00:52:30.980Z,99353.19
2023-01-10T00:54:59.535Z,99368.94
2023-01-10T00:57:28.087Z,99379.47
2023-01-10T00:59:56.493Z,99362.31
2023-01-10T01:02:25.105Z,99380.31
2023-01-10T01:04:55.247Z,99371.19
2023-01-10T01:07:24.069Z,99383.75
2023-01-10T01:10:10.646Z,99388.59
2023-01-10T01:12:39.148Z,99388.59
2023-01-10T01:15:08.754Z,99387.22
2023-01-10T01:17:37.251Z,99397.31
2023-01-10T01:20:08.499Z,99394.66
2023-01-10T01:22:37.802Z,99408.50
2023-01-10T01:25:10.320Z,99402.28
2023-01-10T01:27:39.266Z,99404.91
2023-01-10T01:30:09.287Z,99412.38
2023-01-10T01:32:37.944Z,99407.69
2023-01-10T01:35:10.135Z,99406.84
2023-01-10T01:37:39.489Z,99410.31
2023-01-10T01:40:09.266Z,99402.56
2023-01-10T01:42:38.056Z,99413.22
2023-01-10T01:45:41.686Z,99410.72
2023-01-10T01:48:30.255Z,99407.69
2023-01-10T01:51:07.945Z,99416.25
2023-01-10T01:53:42.009Z,99417.41
2023-01-10T01:56:15.573Z,99417.53
2023-01-10T01:58:49.718Z,99416.84
2023-01-10T02:01:19.362Z,99418.78
2023-01-10T02:03:53.983Z,99419.63
2023-01-10T02:06:27.108Z,99427.34
2023-01-10T02:09:04.747Z,99426.25
2023-01-10T02:11:33.785Z,99428.88
2023-01-10T02:14:06.959Z,99435.66
2023-01-10T02:16:35.537Z,99434.69
2023-01-10T02:19:07.191Z,99414.78
2023-01-10T02:22:03.648Z,99432.06
2023-01-10T02:25:15.532Z,99440.66
2023-01-10T02:28:00.354Z,99437.84
2023-01-10T02:31:00.504Z,99440.22
2023-01-10T02:33:32.838Z,99441.34
2023-01-10T02:36:22.413Z,99445.34
2023-01-10T02:39:02.163Z,99452.09
2023-01-10T02:41:37.702Z,99456.38
2023-01-10T02:44:13.140Z,99464.97
2023-01-10T02:46:43.239Z,99475.47
2023-01-10T02:49:13.403Z,99480.06
2023-01-10T02:51:42.011Z,99476.31
2023-01-10T02:54:15.179Z,99489.88
2023-01-10T02:57:10.189Z,99487.94
2023-01-10T03:00:10.321Z,99497.75
2023-01-10T03:02:49.183Z,99486.84
2023-01-10T03:05:30.472Z,99509.25
2023-01-10T03:08:10.673Z,99509.41
2023-01-10T03:10:46.780Z,99514.50
2023-01-10T03:13:21.399Z,99522.28
2023-01-10T03:15:52.292Z,99531.13
2023-01-10T03:18:25.962Z,99528.34
2023-01-10T03:20:57.417Z,99534.28
2023-01-10T03:23:27.639Z,99535.94
2023-01-10T03:25:59.037Z,99543.84
2023-01-10T03:28:33.467Z,99544.13
2023-01-10T03:31:10.329Z,99553.53
2023-01-10T03:33:39.612Z,99551.72
2023-01-10T03:36:21.102Z,99556.16
2023-01-10T03:38:53.073Z,99561.53
2023-01-10T03:41:32.483Z,99564.59
2023-01-10T03:44:30.874Z,99563.22
2023-01-10T03:47:06.304Z,99561.97
2023-01-10T03:49:37.443Z,99574.16
2023-01-10T03:52:09.024Z,99576.78
2023-01-10T03:54:37.652Z,99581.75
2023-01-10T03:57:08.343Z,99583.56
2023-01-10T03:59:36.954Z,99574.00
2023-01-10T04:02:05.578Z,99599.47
2023-01-10T04:04:34.118Z,99596.84
2023-01-10T04:07:02.562Z,99596.84
2023-01-10T04:09:32.455Z,99603.06
2023-01-10T04:12:01.015Z,99596.03
2023-01-10T04:14:29.799Z,99600.44
2023-01-10T04:16:58.431Z,99605.84
2023-01-10T04:19:26.880Z,99603.50
2023-01-10T04:21:55.512Z,99624.38
2023-01-10T04:24:23.940Z,99635.84
2023-01-10T04:26:53.980Z,99631.56
2023-01-10T04:29:22.464Z,99631.84
2023-01-10T04:31:51.512Z,99645.41
2023-01-10T04:34:20.439Z,99649.28
2023-01-10T04:36:50.584Z,99649.44
2023-01-10T04:39:19.367Z,99658.13
2023-01-10T04:41:50.378Z,99664.34
2023-01-10T04:44:20.258Z,99663.66
2023-01-10T04:46:48.678Z,99676.81
2023-01-10T04:49:17.186Z,99656.72
2023-01-10T04:51:45.686Z,99679.84
2023-01-10T04:54:14.081Z,99686.63
2023-01-10T04:56:42.505Z,99698.25
2023-01-10T04:59:11.789Z,99692.84
2023-01-10T05:01:41.738Z,99696.31
2023-01-10T05:04:10.646Z,99700.19
2023-01-10T05:06:40.485Z,99706.25
2023-01-10T05:09:09.090Z,99707.22
2023-01-10T05:11:37.766Z,99706.13
2023-01-10T05:14:06.223Z,99709.56
2023-01-10T05:16:35.428Z,99710.00
2023-01-10T05:19:05.577Z,99709.41
2023-01-10T05:21:34.178Z,99719.66
2023-01-10T05:24:02.729Z,99715.91
2023-01-10T05:26:33.201Z,99726.84
2023-01-10T05:29:01.778Z,99740.69
2023-01-10T05:31:30.539Z,99744.44
2023-01-10T05:33:59.105Z,99746.22
2023-01-10T05:36:29.083Z,99753.84
2023-01-10T05:38:57.514Z,99750.25
2023-01-10T05:41:26.008Z,99748.84
2023-01-10T05:43:54.610Z,99757.69
2023-01-10T05:46:23.090Z,99757.69
2023-01-10T05:48:53.276Z,99759.63
2023-01-10T05:51:21.704Z,99756.63
2023-01-10T05:53:51.656Z,99772.31
2023-01-10T05:56:20.649Z,99785.34
2023-01-10T05:58:57.016Z,99783.69
2023-01-10T06:01:33.314Z,99788.09
2023-01-10T06:04:02.252Z,99790.16
2023-01-10T06:06:30.679Z,99795.84
2023-01-10T06:09:00.553Z,99800.25
2023-01-10T06:11:30.445Z,99809.25
2023-01-10T06:13:59.014Z,99803.84
2023-01-10T06:16:27.400Z,99802.78
2023-01-10T06:18:55.866Z,99817.69
2023-01-10T06:21:24.298Z,99815.47
2023-01-10T06:23:52.795Z,99828.47
2023-01-10T06:26:22.725Z,99817.78
2023-01-10T06:28:51.309Z,99840.66
2023-01-10T06:31:22.379Z,99840.66
2023-01-10T06:33:52.080Z,99845.91
2023-01-10T06:36:20.972Z,99848.53
2023-01-10T06:38:49.419Z,99854.31
2023-01-10T06:41:17.817Z,99863.84
2023-01-10T06:43:48.706Z,99874.38
2023-01-10T06:46:20.051Z,99882.00
2023-01-10T06:48:49.214Z,99876.69
2023-01-10T06:51:20.200Z,99889.16
2023-01-10T06:53:49.239Z,99897.31
2023-01-10T06:56:17.729Z,99898.28
2023-01-10T06:58:49.539Z,99904.22
2023-01-10T07:01:20.173Z,99910.69
2023-01-10T07:03:49.277Z,99921.94
2023-01-10T07:06:17.965Z,99925.50
2023-01-10T07:08:47.978Z,99919.69
2023-01-10T07:11:18.059Z,99937.19
2023-01-10T07:13:48.058Z,99940.00
2023-01-10T07:16:17.799Z,99940.66
2023-01-10T07:18:46.319Z,99942.94
2023-01-10T07:21:15.622Z,99943.19
2023-01-10T07:23:44.208Z,99952.88
2023-01-10T07:26:17.880Z,99942.03
2023-01-10T07:28:51.171Z,99957.03
2023-01-10T07:31:23.025Z,99958.72
2023-01-10T07:33:53.420Z,99969.47
2023-01-10T07:36:21.909Z,99965.44
2023-01-10T07:38:50.286Z,99972.00
2023-01-10T07:41:18.732Z,99964.97
2023-01-10T07:43:49.020Z,99968.31
2023-01-10T07:46:17.630Z,99983.56
2023-01-10T07:48:47.187Z,99991.34
2023-01-10T07:51:15.569Z,99987.16
2023-01-10T07:53:44.014Z,99987.41
2023-01-10T07:56:12.496Z,99999.94
2023-01-10T07:58:40.927Z,100007.81
2023-01-10T08:01:10.934Z,100001.00
2023-01-10T08:03:39.527Z,100010.56
2023-01-10T08:06:11.441Z,100017.19
2023-01-10T08:08:40.470Z,100015.53
2023-01-10T08:11:24.197Z,100021.28
2023-01-10T08:13:52.724Z,100037.19
2023-01-10T08:16:22.955Z,100011.19
2023-01-10T08:18:51.444Z,100036.72
2023-01-10T08:21:19.873Z,100039.94
2023-01-10T08:23:48.347Z,100036.50
2023-01-10T08:26:16.721Z,100046.84
2023-01-10T08:28:45.181Z,100036.28
2023-01-10T08:31:13.775Z,100042.94
2023-01-10T08:33:43.642Z,100052.97
2023-01-10T08:36:19.033Z,100041.13
2023-01-10T08:38:48.129Z,100056.41
2023-01-10T08:41:16.553Z,100049.50
2023-01-10T08:43:45.011Z,100060.00
2023-01-10T08:46:13.549Z,100052.81
2023-01-10T08:48:43.552Z,100064.06
2023-01-10T08:51:12.216Z,100063.09
2023-01-10T08:53:41.596Z,100061.41
2023-01-10T08:56:10.981Z,100052.25
2023-01-10T08:58:39.724Z,100065.25
2023-01-10T09:01:09.588Z,100083.16
2023-01-10T09:03:38.051Z,100083.16
2023-01-10T09:06:09.715Z,100085.78
2023-01-10T09:08:38.467Z,100080.53
2023-01-10T09:11:07.565Z,100079.47
2023-01-10T09:13:36.068Z,100086.63
2023-01-10T09:16:05.242Z,100095.00
2023-01-10T09:18:34.353Z,100094.84
2023-01-10T09:21:03.622Z,100112.19
2023-01-10T09:23:35.998Z,100106.06
2023-01-10T09:26:05.444Z,100116.09
2023-01-10T09:28:33.982Z,100102.63
2023-01-10T09:31:04.608Z,100116.09
2023-01-10T09:33:45.760Z,100102.50
2023-01-10T09:36:15.974Z,100127.94
2023-01-10T09:38:46.092Z,100130.41
2023-01-10T09:41:44.255Z,100130.31
2023-01-10T09:44:21.133Z,100141.41
2023-01-10T09:46:58.013Z,100137.97
2023-01-10T09:49:41.887Z,100137.81
2023-01-10T09:52:20.881Z,100146.41
2023-01-10T09:54:53.786Z,100141.88
2023-01-10T09:57:24.268Z,100158.34
2023-01-10T09:59:55.067Z,100159.06
2023-01-10T10:02:30.883Z,100166.97
2023-01-10T10:05:14.593Z,100172.81
2023-01-10T10:07:43.093Z,100172.22
2023-01-10T10:10:19.771Z,100179.50
2023-01-10T10:12:56.748Z,100163.38
2023-01-10T10:15:35.577Z,100178.91
2023-01-10T10:18:12.528Z,100171.94
2023-01-10T10:20:52.919Z,100183.81
2023-01-10T10:23:46.341Z,100183.81
2023-01-10T10:26:24.109Z,100177.00
2023-01-10T10:29:31.007Z,100190.38
2023-01-10T10:32:23.543Z,100194.69
2023-01-10T10:34:56.601Z,100189.28
2023-01-10T10:37:33.124Z,100184.50
2023-01-10T10:40:04.914Z,100189.75
2023-01-10T10:42:37.616Z,100190.16
2023-01-10T10:45:09.681Z,100198.00
2023-01-10T10:47:41.014Z,100189.97
2023-01-10T10:50:22.729Z,100186.88
2023-01-10T10:52:51.598Z,100196.09
2023-01-10T10:55:32.449Z,100200.38
2023-01-10T10:58:03.689Z,100191.63
2023-01-10T11:00:33.097Z,100191.13
2023-01-10T11:03:07.471Z,100197.00
2023-01-10T11:05:40.556Z,100191.50
2023-01-10T11:08:12.759Z,100199.38
2023-01-10T11:10:42.085Z,100188.16
2023-01-10T11:13:22.941Z,100197.47
2023-01-10T11:15:53.186Z,100192.19
2023-01-10T11:18:25.669Z,100201.06
2023-01-10T11:21:00.790Z,100208.44
2023-01-10T11:23:43.349Z,100207.59
2023-01-10T11:26:25.693Z,100207.59
2023-01-10T11:29:07.370Z,100206.53
2023-01-10T11:31:37.742Z,100208.19
2023-01-10T11:34:09.976Z,100208.91
2023-01-10T11:36:58.384Z,100217.38
2023-01-10T11:39:28.187Z,100219.56
2023-01-10T11:41:59.675Z,100224.06
2023-01-10T11:44:31.067Z,100221.31
2023-01-10T11:47:03.740Z,100228.25
2023-01-10T11:49:36.825Z,100227.53
2023-01-10T11:52:08.051Z,100226.59
2023-01-10T11:54:36.656Z,100235.91
2023-01-10T11:57:10.044Z,100237.94
2023-01-10T11:59:40.005Z,100237.81
2023-01-10T12:02:22.336Z,100240.22
2023-01-10T12:04:53.068Z,100258.50
2023-01-10T12:07:21.792Z,100252.16
2023-01-10T12:09:58.254Z,100239.50
2023-01-10T12:12:28.311Z,100253.56
2023-01-10T12:15:00.440Z,100250.25
2023-01-10T12:17:31.669Z,100259.91
2023-01-10T12:20:03.169Z,100250.75
2023-01-10T12:22:33.787Z,100261.09
2023-01-10T12:25:03.920Z,100254.53
2023-01-10T12:27:34.245Z,100259.09
2023-01-10T12:30:08.645Z,100259.81
2023-01-10T12:32:45.753Z,100264.94
2023-01-10T12:35:20.779Z,100272.56
2023-01-10T12:37:55.201Z,100264.38
2023-01-10T12:40:32.308Z,100278.69
2023-01-10T12:43:23.530Z,100282.16
2023-01-10T12:45:59.579Z,100284.72
2023-01-10T12:48:40.639Z,100286.13
2023-01-10T12:51:16.911Z,100292.94
2023-01-10T12:53:49.998Z,100296.44
2023-01-10T12:56:20.536Z,100311.97
2023-01-10T12:58:52.370Z,100315.44
2023-01-10T13:01:28.938Z,100314.34
2023-01-10T13:04:02.144Z,100318.41
2023-01-10T13:06:34.835Z,100319.13
2023-01-10T13:09:08.904Z,100318.88
2023-01-10T13:11:47.088Z,100317.19
2023-01-10T13:14:20.353Z,100313.00
2023-01-10T13:16:55.494Z,100316.50
2023-01-10T13:19:27.086Z,100321.06
2023-01-10T13:22:27.984Z,100328.50
2023-01-10T13:24:58.598Z,100334.00
2023-01-10T13:27:32.097Z,100335.81
2023-01-10T13:30:01.038Z,100343.72
2023-01-10T13:32:35.557Z,100352.97
2023-01-10T13:35:16.347Z,100347.94
2023-01-10T13:37:47.017Z,100361.44
2023-01-10T13:40:24.749Z,100380.59
2023-01-10T13:43:31.817Z,100371.50
2023-01-10T13:46:29.899Z,100372.22
2023-01-10T13:49:28.124Z,100385.16
2023-01-10T13:52:38.874Z,100384.81
2023-01-10T13:55:36.542Z,100391.03
2023-01-10T13:58:06.745Z,100397.28
2023-01-10T14:01:17.698Z,100407.56
2023-01-10T14:03:58.410Z,100407.06
2023-01-10T14:06:43.569Z,100404.53
2023-01-10T14:09:46.810Z,100410.91
2023-01-10T14:12:29.542Z,100412.81
2023-01-10T14:15:02.151Z,100411.63
2023-01-10T14:17:33.487Z,100416.75
2023-01-10T14:20:19.693Z,100422.97
2023-01-10T14:23:06.758Z,100424.06
2023-01-10T14:25:37.176Z,100416.03
2023-01-10T14:28:15.924Z,100425.34
2023-01-10T14:30:44.704Z,100409.66
2023-01-10T14:33:17.783Z,100426.22
2023-01-10T14:35:49.261Z,100410.03
2023-01-10T14:38:25.629Z,100412.34
2023-01-10T14:40:58.800Z,100416.28
2023-01-10T14:43:30.301Z,100424.31
2023-01-10T14:46:05.060Z,100420.94
2023-01-10T14:48:35.409Z,100439.00
2023-01-10T14:51:22.422Z,100437.09
2023-01-10T14:54:00.116Z,100434.94
2023-01-10T14:56:30.542Z,100429.56
2023-01-10T14:58:58.974Z,100442.47
2023-01-10T15:01:29.777Z,100449.66
2023-01-10T15:03:59.186Z,100446.06
2023-01-10T15:06:27.963Z,100448.16
2023-01-10T15:09:07.458Z,100464.34
2023-01-10T15:11:36.265Z,100467.34
2023-01-10T15:14:11.079Z,100461.53
2023-01-10T15:16:42.699Z,100477.31
2023-01-10T15:19:16.627Z,100465.94
2023-01-10T15:21:46.227Z,100477.44
2023-01-10T15:24:43.060Z,100465.72
2023-01-10T15:27:16.057Z,100470.38
2023-01-10T15:29:47.210Z,100460.69
2023-01-10T15:32:28.075Z,100485.22
2023-01-10T15:34:58.796Z,100485.72
2023-01-10T15:37:34.222Z,100484.75
2023-01-10T15:40:06.648Z,100492.50
2023-01-10T15:42:35.568Z,100485.31
2023-01-10T15:45:20.117Z,100499.31
2023-01-10T15:48:03.169Z,100476.34
2023-01-10T15:50:34.117Z,100486.25
2023-01-10T15:53:05.376Z,100475.34
2023-01-10T15:55:41.762Z,100492.34
2023-01-10T15:58:24.540Z,100498.09
2023-01-10T16:00:54.825Z,100502.41
2023-01-10T16:03:27.890Z,100503.50
2023-01-10T16:05:59.450Z,100498.81
2023-01-10T16:08:29.961Z,100513.31
2023-01-10T16:11:01.518Z,100508.88
2023-01-10T16:13:31.719Z,100515.59
2023-01-10T16:16:01.232Z,100510.34
2023-01-10T16:18:29.735Z,100510.97
2023-01-10T16:21:00.721Z,100518.72
2023-01-10T16:23:34.197Z,100521.47
2023-01-10T16:26:08.686Z,100523.97
2023-01-10T16:28:39.292Z,100523.88
2023-01-10T16:31:08.215Z,100522.06
2023-01-10T16:33:37.779Z,100521.25
2023-01-10T16:36:14.689Z,100525.22
2023-01-10T16:38:43.965Z,100533.84
2023-01-10T16:41:32.724Z,100527.09
2023-01-10T16:44:02.107Z,100533.94
2023-01-10T16:46:31.650Z,100540.78
2023-01-10T16:49:00.688Z,100538.88
2023-01-10T16:51:32.674Z,100537.78
2023-01-10T16:54:01.448Z,100524.75
2023-01-10T16:56:31.778Z,100540.09
2023-01-10T16:59:00.408Z,100538.41
2023-01-10T17:01:32.494Z,100536.50
2023-01-10T17:04:01.795Z,100544.41
2023-01-10T17:06:30.274Z,100541.53
2023-01-10T17:08:59.323Z,100552.06
2023-01-10T17:11:30.687Z,100552.06
2023-01-10T17:14:05.584Z,100555.41
2023-01-10T17:16:35.322Z,100562.44
2023-01-10T17:19:04.178Z,100552.53
2023-01-10T17:21:32.693Z,100563.53
2023-01-10T17:24:01.166Z,100575.03
2023-01-10T17:26:29.634Z,100563.28
2023-01-10T17:28:58.237Z,100577.53
2023-01-10T17:31:28.160Z,100580.38
2023-01-10T17:33:56.864Z,100582.91
2023-01-10T17:36:29.406Z,100590.81
2023-01-10T17:38:58.243Z,100585.53
2023-01-10T17:41:27.120Z,100583.88
2023-01-10T17:43:55.516Z,100585.53
2023-01-10T17:46:24.006Z,100579.44
2023-01-10T17:48:53.873Z,100579.06
2023-01-10T17:51:24.883Z,100580.50
2023-01-10T17:53:55.701Z,100596.31
2023-01-10T17:56:24.797Z,100590.41
2023-01-10T17:58:53.881Z,100593.91
2023-01-10T18:01:25.656Z,100583.31
2023-01-10T18:03:56.133Z,100597.81
2023-01-10T18:06:25.374Z,100599.09
2023-01-10T18:08:54.299Z,100594.91
2023-01-10T18:11:25.339Z,100616.56
2023-01-10T18:13:53.903Z,100612.59
2023-01-10T18:16:26.250Z,100613.16
2023-01-10T18:18:57.374Z,100616.22
2023-01-10T18:21:26.332Z,100629.09
2023-01-10T18:23:59.754Z,100622.81
2023-01-10T18:26:28.122Z,100601.22
2023-01-10T18:28:56.625Z,100627.88
2023-01-10T18:31:25.081Z,100626.09
2023-01-10T18:33:53.935Z,100617.19
2023-01-10T18:36:25.089Z,100627.19
2023-01-10T18:38:53.938Z,100642.16
2023-01-10T18:41:22.879Z,100637.03
2023-01-10T18:43:51.362Z,100624.91
2023-01-10T18:46:21.412Z,100625.88
2023-01-10T18:48:52.732Z,100644.66
2023-01-10T18:51:22.932Z,100625.38
2023-01-10T18:53:54.299Z,100645.31
2023-01-10T18:56:22.814Z,100640.06
2023-01-10T18:58:51.234Z,100638.16
2023-01-10T19:01:22.414Z,100632.06
2023-01-10T19:03:51.328Z,100633.13
2023-01-10T19:06:22.871Z,100627.13
2023-01-10T19:08:52.949Z,100632.41
2023-01-10T19:11:21.705Z,100639.84
2023-01-10T19:13:52.179Z,100643.31
2023-01-10T19:16:22.922Z,100649.63
2023-01-10T19:18:53.616Z,100644.28
2023-01-10T19:21:22.583Z,100642.59
2023-01-10T19:23:55.244Z,100646.19
2023-01-10T19:26:24.289Z,100644.50
2023-01-10T19:28:53.023Z,100646.28
2023-01-10T19:31:23.911Z,100655.09
2023-01-10T19:33:53.135Z,100645.53
2023-01-10T19:36:23.935Z,100648.16
2023-01-10T19:38:57.139Z,100655.22
2023-01-10T19:41:25.753Z,100650.81
2023-01-10T19:43:58.421Z,100647.78
2023-01-10T19:46:27.667Z,100644.94
2023-01-10T19:48:57.832Z,100633.78
2023-01-10T19:51:26.719Z,100645.03
2023-01-10T19:53:56.614Z,100642.41
2023-01-10T19:56:25.052Z,100644.31
2023-01-10T19:58:55.591Z,100627.41
2023-01-10T20:01:26.007Z,100645.97
2023-01-10T20:03:55.663Z,100642.63
2023-01-10T20:06:26.826Z,100647.88
2023-01-10T20:08:56.915Z,100653.13
2023-01-10T20:11:26.847Z,100638.03
2023-01-10T20:13:55.499Z,100656.72
2023-01-10T20:16:26.692Z,100647.88
2023-01-10T20:18:55.180Z,100635.91
2023-01-10T20:21:23.679Z,100652.75
2023-01-10T20:23:52.166Z,100651.19
2023-01-10T20:26:23.608Z,100658.81
2023-01-10T20:28:52.215Z,100653.28
2023-01-10T20:31:23.075Z,100657.81
2023-01-10T20:33:51.858Z,100651.81
2023-01-10T20:36:22.307Z,100667.38
2023-01-10T20:38:51.121Z,100655.19
2023-01-10T20:41:23.801Z,100663.78
2023-01-10T20:43:52.609Z,100639.00
2023-01-10T20:46:23.282Z,100659.59
2023-01-10T20:48:52.594Z,100651.81
2023-01-10T20:51:23.845Z,100655.81
2023-01-10T20:53:52.962Z,100653.28
2023-01-10T20:56:25.009Z,100646.56
2023-01-10T20:58:54.624Z,100638.38
2023-01-10T21:01:34.104Z,100642.91
2023-01-10T21:04:04.164Z,100655.22
2023-01-10T21:06:32.823Z,100637.88
2023-01-10T21:09:01.518Z,100632.31
2023-01-10T21:11:31.420Z,100645.16
2023-01-10T21:13:59.848Z,100636.13
2023-01-10T21:16:28.365Z,100630.03
2023-01-10T21:18:56.811Z,100632.44
2023-01-10T21:21:25.252Z,100638.22
2023-01-10T21:23:55.197Z,100637.38
2023-01-10T21:26:24.324Z,100640.13
2023-01-10T21:28:54.181Z,100644.44
2023-01-10T21:31:23.321Z,100642.81
2023-01-10T21:33:51.967Z,100654.56
2023-01-10T21:36:20.415Z,100648.59
2023-01-10T21:38:49.749Z,100646.78
2023-01-10T21:41:40.508Z,100650.13
2023-01-10T21:44:10.899Z,100639.63
2023-01-10T21:46:41.257Z,100648.47
2023-01-10T21:49:10.888Z,100641.50
2023-01-10T21:51:39.373Z,100646.78
2023-01-10T21:54:07.949Z,100635.66
2023-01-10T21:56:36.418Z,100652.16
2023-01-10T21:59:04.907Z,100646.78
2023-01-10T22:01:34.826Z,100642.59
2023-01-10T22:04:03.434Z,100643.41
2023-01-10T22:06:32.099Z,100648.59
2023-01-10T22:09:00.589Z,100646.56
2023-01-10T22:11:29.408Z,100653.50
2023-01-10T22:13:58.403Z,100652.03
2023-01-10T22:16:26.854Z,100639.84
2023-01-10T22:18:56.884Z,100640.84
2023-01-10T22:21:25.860Z,100640.13
2023-01-10T22:23:54.247Z,100646.78
2023-01-10T22:26:22.725Z,100640.06
2023-01-10T22:28:51.231Z,100636.94
2023-01-10T22:31:19.770Z,100641.59
2023-01-10T22:33:48.324Z,100640.22
2023-01-10T22:36:20.114Z,100649.78
2023-01-10T22:38:49.658Z,100649.19
2023-01-10T22:41:20.064Z,100635.00
2023-01-10T22:43:49.040Z,100634.16
2023-01-10T22:46:17.571Z,100622.59
2023-01-10T22:48:46.371Z,100636.34
2023-01-10T22:51:15.647Z,100646.53
2023-01-10T22:53:50.658Z,100638.97
2023-01-10T22:56:19.457Z,100634.06
2023-01-10T22:58:49.126Z,100643.28
2023-01-10T23:01:19.600Z,100625.88
2023-01-10T23:03:48.126Z,100633.66
2023-01-10T23:06:16.898Z,100638.91
2023-01-10T23:08:47.611Z,100643.22
2023-01-10T23:11:18.890Z,100639.13
2023-01-10T23:13:48.111Z,100633.47
2023-01-10T23:16:20.401Z,100638.09
2023-01-10T23:18:49.203Z,100636.19
2023-01-10T23:21:17.957Z,100635.16
2023-01-10T23:23:47.798Z,100637.25
2023-01-10T23:26:16.338Z,100629.25
2023-01-10T23:28:47.250Z,100636.09
2023-01-10T23:31:16.793Z,100634.28
2023-01-10T23:33:45.271Z,100613.09
2023-01-10T23:36:14.278Z,100613.69
2023-01-10T23:38:42.780Z,100616.63
2023-01-10T23:41:16.189Z,100626.31
2023-01-10T23:43:44.648Z,100623.56
2023-01-10T23:46:13.079Z,100620.00
2023-01-10T23:48:43.403Z,100610.34
2023-01-10T23:51:12.249Z,100611.16
2023-01-10T23:53:41.211Z,100613.78
2023-01-10T23:56:12.924Z,100605.38
2023-01-10T23:58:42.124Z,100608.88
